Rn Olymp — UGGC — position and weather

sailwx.info

Track history (hours):
 
Tides and Currents Weather Stations Pressure Air Temp Water Temp Dewpoint Dewpoint Depression Visibility Wind Speed Wind Dir Waves Ship Positions

Rn Olymp

Last reported at 2017-Dec-18 08:30 UTC. Time now 2017-Dec-18 08:53 UTC.
Position N 44°36' E 037°55'.

Length 98 m; draft 6.1 m.

Type: Tanker. MMSI: 273330670.

Date/timePositionNaut miles runAvg speedWind from/ knotsBaromVisibWave heightAir tempDewpointWater temp
2017-Dec-18 08:30N 44°36' E 037°55'0 0.0
2017-Dec-18 08:00N 44°36' E 037°55'0 0.0
2017-Dec-18 07:30N 44°36' E 037°55'0 0.3
2017-Dec-18 07:01N 44°36' E 037°55'3 5.7
2017-Dec-18 06:31N 44°38' E 037°52'4 7.9
2017-Dec-18 06:01N 44°42' E 037°49'1 1.4
2017-Dec-18 05:31N 44°42' E 037°49'0 0.1
2017-Dec-18 05:00N 44°42' E 037°48'0 0.0
2017-Dec-18 04:30N 44°42' E 037°48'0 0.0
2017-Dec-18 04:00N 44°42' E 037°48'0 0.0
2017-Dec-18 03:31N 44°42' E 037°48'0 0.0
2017-Dec-18 03:01N 44°42' E 037°48'0 0.0
2017-Dec-18 02:30N 44°42' E 037°48'0 0.0
2017-Dec-18 02:01N 44°42' E 037°48'0 0.0
2017-Dec-18 01:30N 44°42' E 037°48'0 0.0
2017-Dec-18 01:00N 44°42' E 037°48'0 0.0
2017-Dec-18 00:31N 44°42' E 037°48'1 1.5
2017-Dec-18 00:00N 44°43' E 037°49'1 1.3
2017-Dec-17 23:30N 44°43' E 037°49'0 0.0
2017-Dec-17 23:00N 44°43' E 037°49'0 0.0
2017-Dec-17 22:30N 44°43' E 037°49'0 0.0
2017-Dec-17 22:00N 44°43' E 037°49'0 0.0
2017-Dec-17 21:30N 44°43' E 037°49'0 0.0
2017-Dec-17 21:00N 44°43' E 037°49'0 0.0
2017-Dec-17 20:30N 44°43' E 037°49'0 0.0
2017-Dec-17 20:01N 44°43' E 037°49'0 0.0
2017-Dec-17 19:30N 44°43' E 037°49'0 0.0
2017-Dec-17 19:00N 44°43' E 037°49'0 0.0
2017-Dec-17 18:30N 44°43' E 037°49'0 0.0
2017-Dec-17 18:00N 44°43' E 037°49'0 0.0
2017-Dec-17 17:30N 44°43' E 037°49'0 0.0
2017-Dec-17 17:00N 44°43' E 037°49'0 0.0
2017-Dec-17 16:30N 44°43' E 037°49'0 0.0
2017-Dec-17 16:00N 44°43' E 037°49'0 0.0
2017-Dec-17 15:30N 44°43' E 037°49'0 0.0
2017-Dec-17 15:00N 44°43' E 037°49'0 0.0
2017-Dec-17 14:30N 44°43' E 037°49'0 0.0
2017-Dec-17 14:00N 44°43' E 037°49'0 0.0
2017-Dec-17 13:30N 44°43' E 037°49'0 0.0
2017-Dec-17 13:00N 44°43' E 037°49'0 0.0
2017-Dec-17 12:30N 44°43' E 037°49'0 0.0
2017-Dec-17 12:00N 44°43' E 037°49'0 0.0
2017-Dec-17 11:30N 44°43' E 037°49'0 0.0
2017-Dec-17 11:00N 44°43' E 037°49'0 0.0
2017-Dec-17 10:30N 44°43' E 037°49'0 0.0
2017-Dec-17 10:00N 44°43' E 037°49'0 0.6
2017-Dec-17 09:30N 44°43' E 037°49'3 5.6
2017-Dec-17 09:00N 44°40' E 037°50'4 8.6
2017-Dec-17 08:30N 44°37' E 037°54'3 5.4
2017-Dec-17 08:00N 44°35' E 037°57'0 0.0
2017-Dec-17 07:30N 44°35' E 037°57'0 0.0
2017-Dec-17 07:00N 44°35' E 037°57'0 0.0
2017-Dec-17 06:30N 44°35' E 037°57'0 0.0
2017-Dec-17 06:00N 44°35' E 037°57'0 0.0
2017-Dec-17 05:30N 44°35' E 037°57'0 0.1
2017-Dec-17 05:00N 44°35' E 037°57'0 0.1
2017-Dec-17 04:30N 44°35' E 037°57'0 0.1
2017-Dec-17 04:00N 44°35' E 037°57'0 0.0
2017-Dec-17 03:30N 44°35' E 037°57'0 0.0
2017-Dec-17 02:58N 44°35' E 037°57'0 0.0
2017-Dec-17 02:28N 44°35' E 037°57'0 0.0
2017-Dec-17 01:58N 44°35' E 037°57'0 0.0
2017-Dec-17 01:28N 44°35' E 037°57'0 0.1
2017-Dec-17 00:58N 44°35' E 037°57'0 0.0
2017-Dec-17 00:28N 44°35' E 037°57'0 0.0
2017-Dec-16 23:58N 44°35' E 037°57'0 0.0
2017-Dec-16 23:28N 44°35' E 037°57'0 0.1
2017-Dec-16 22:55N 44°35' E 037°57'0 0.1
2017-Dec-16 22:29N 44°35' E 037°57'0 0.1
2017-Dec-16 21:57N 44°35' E 037°57'0 0.1
2017-Dec-16 21:30N 44°35' E 037°57'2 3.8
2017-Dec-16 21:00N 44°33' E 037°58'4 9.2
2017-Dec-16 20:30N 44°30' E 038°02'20 9.5
2017-Dec-16 18:23N 44°18' E 038°25'14 9.4
2017-Dec-16 16:56N 44°12' E 038°41'4 9.2
2017-Dec-16 16:30N 44°10' E 038°46'4 8.9
2017-Dec-16 16:00N 44°08' E 038°52'4 8.7
2017-Dec-16 15:30N 44°06' E 038°57'4 7.3
2017-Dec-16 15:00N 44°05' E 039°02'0 0.6
2017-Dec-16 14:30N 44°05' E 039°02'0 0.0
2017-Dec-16 14:00N 44°05' E 039°02'0 0.0
2017-Dec-16 13:30N 44°05' E 039°02'0 0.0
2017-Dec-16 13:00N 44°05' E 039°02'0 0.7
2017-Dec-16 12:30N 44°05' E 039°03'1 2.5
2017-Dec-16 11:59N 44°05' E 039°04'0 0.0
2017-Dec-16 11:29N 44°05' E 039°04'0 0.0
2017-Dec-16 10:59N 44°05' E 039°04'0 0.0
2017-Dec-16 10:29N 44°05' E 039°04'0 0.0
2017-Dec-16 09:59N 44°05' E 039°04'0 0.0
2017-Dec-16 09:29N 44°05' E 039°04'0 0.0
2017-Dec-16 08:59N 44°05' E 039°04'0 0.0
2017-Dec-16 08:29N 44°05' E 039°04'0 0.0
2017-Dec-16 07:59N 44°05' E 039°04'0 0.0
2017-Dec-16 07:29N 44°05' E 039°04'0 0.0
2017-Dec-16 06:59N 44°05' E 039°04'0 0.0
2017-Dec-16 06:29N 44°05' E 039°04'0 0.0
2017-Dec-16 05:59N 44°05' E 039°04'0 0.0
2017-Dec-16 05:28N 44°05' E 039°04'0 0.0
2017-Dec-16 04:58N 44°05' E 039°04'0 0.0
2017-Dec-16 04:28N 44°05' E 039°04'0 0.0
2017-Dec-16 03:58N 44°05' E 039°04'0 0.0
2017-Dec-16 03:27N 44°05' E 039°04'0 0.0
2017-Dec-16 03:00N 44°05' E 039°04'0 0.0
2017-Dec-16 02:30N 44°05' E 039°04'0 0.0
2017-Dec-16 01:59N 44°05' E 039°04'0 0.0
2017-Dec-16 01:26N 44°05' E 039°04'0 0.0
2017-Dec-16 01:01N 44°05' E 039°04'1 2.8
2017-Dec-16 00:30N 44°05' E 039°03'3 6.0
2017-Dec-16 00:00N 44°06' E 038°58'3 5.9
2017-Dec-15 23:30N 44°07' E 038°55'3 5.5
2017-Dec-15 23:00N 44°08' E 038°51'3 5.5
2017-Dec-15 22:30N 44°09' E 038°48'3 5.4
2017-Dec-15 22:00N 44°11' E 038°45'3 5.3
2017-Dec-15 21:30N 44°12' E 038°41'3 5.2
2017-Dec-15 20:57N 44°14' E 038°38'2 5.1
2017-Dec-15 20:30N 44°15' E 038°35'8 5.1
2017-Dec-15 18:58N 44°18' E 038°25'14 5.0
2017-Dec-15 16:08N 44°25' E 038°08'1 5.2
2017-Dec-15 15:56N 44°26' E 038°07'3 5.2
2017-Dec-15 15:23N 44°28' E 038°05'2 5.2
2017-Dec-15 15:00N 44°30' E 038°03'3 5.2
2017-Dec-15 14:30N 44°32' E 038°00'3 6.4
2017-Dec-15 14:00N 44°34' E 037°57'3 6.5
2017-Dec-15 13:30N 44°37' E 037°54'0 0.3
2017-Dec-15 13:00N 44°36' E 037°54'0 0.0
2017-Dec-15 12:30N 44°36' E 037°54'0 0.0
2017-Dec-15 12:00N 44°36' E 037°54'0 0.0
2017-Dec-15 11:30N 44°36' E 037°54'0 0.0
2017-Dec-15 11:00N 44°36' E 037°54'0 0.0
2017-Dec-15 10:30N 44°36' E 037°54'0 0.0
2017-Dec-15 10:00N 44°36' E 037°54'0 0.0
2017-Dec-15 09:30N 44°36' E 037°54'0 0.0
2017-Dec-15 09:00N 44°36' E 037°54'0 0.0
2017-Dec-15 08:30N 44°36' E 037°54'0 0.0
2017-Dec-15 08:00N 44°36' E 037°54'0 0.0
2017-Dec-15 07:30N 44°36' E 037°54'0 0.0
2017-Dec-15 07:00N 44°36' E 037°54'0 0.0
2017-Dec-15 06:30N 44°36' E 037°54'0 0.0
2017-Dec-15 05:59N 44°36' E 037°54'0 0.0
2017-Dec-15 05:29N 44°36' E 037°54'0 0.0
2017-Dec-15 04:59N 44°36' E 037°54'0 0.0
2017-Dec-15 03:53N 44°36' E 037°54'0 0.0
2017-Dec-15 02:29N 44°36' E 037°54'0 0.0
2017-Dec-15 00:59N 44°36' E 037°54'0 0.0
2017-Dec-15 00:29N 44°36' E 037°54'0 0.0
2017-Dec-14 18:31N 44°36' E 037°54'1 1.2
2017-Dec-14 18:01N 44°37' E 037°54'4 8.9
2017-Dec-14 17:30N 44°40' E 037°50'4 7.6
2017-Dec-14 17:01N 44°43' E 037°47'0 0.6
2017-Dec-14 16:28N 44°44' E 037°47'0 0.0
2017-Dec-14 15:58N 44°44' E 037°47'0 0.0
2017-Dec-14 14:58N 44°44' E 037°47'0 0.0
2017-Dec-14 14:28N 44°44' E 037°47'0 0.0
2017-Dec-14 13:58N 44°44' E 037°47'0 0.0
2017-Dec-14 13:28N 44°44' E 037°47'0 0.0
2017-Dec-14 12:58N 44°44' E 037°47'0 0.0
2017-Dec-14 12:28N 44°44' E 037°47'0 0.0
2017-Dec-14 12:00N 44°44' E 037°47'0 0.0
2017-Dec-14 11:30N 44°44' E 037°47'0 0.0
2017-Dec-14 11:00N 44°44' E 037°47'0 0.0
2017-Dec-14 10:30N 44°44' E 037°47'1 2.3
2017-Dec-14 10:00N 44°43' E 037°48'2 3.5
2017-Dec-14 09:30N 44°43' E 037°51'0 0.0
2017-Dec-14 08:58N 44°43' E 037°51'0 0.0
2017-Dec-14 08:28N 44°43' E 037°51'0 0.0
2017-Dec-14 07:59N 44°43' E 037°51'0 0.0
2017-Dec-14 07:29N 44°43' E 037°51'0 0.0
2017-Dec-14 06:59N 44°43' E 037°51'0 0.0
2017-Dec-14 06:29N 44°43' E 037°51'0 0.0
2017-Dec-14 05:59N 44°43' E 037°51'0 0.0
2017-Dec-14 05:29N 44°43' E 037°51'0 0.0
2017-Dec-14 04:59N 44°43' E 037°51'0 0.0
2017-Dec-14 04:29N 44°43' E 037°51'0 0.0
2017-Dec-14 03:59N 44°43' E 037°51'0 0.0
2017-Dec-14 03:29N 44°43' E 037°51'0 0.0
2017-Dec-14 02:59N 44°43' E 037°51'0 0.0
2017-Dec-14 02:29N 44°43' E 037°51'1 1.7
2017-Dec-14 02:00N 44°42' E 037°50'4 8.8
2017-Dec-14 01:30N 44°38' E 037°51'4 8.8
2017-Dec-14 01:00N 44°34' E 037°53'5 9.4
2017-Dec-14 00:30N 44°30' E 037°58'5 9.6
2017-Dec-14 00:00N 44°27' E 038°03'5 9.8
2017-Dec-13 23:30N 44°24' E 038°09'510.0
2017-Dec-13 22:57N 44°22' E 038°15'510.0
2017-Dec-13 22:30N 44°20' E 038°21'510.1
2017-Dec-13 22:00N 44°17' E 038°27'710.4
2017-Dec-13 21:17N 44°13' E 038°36'310.2
2017-Dec-13 21:00N 44°12' E 038°40'5 9.9
2017-Dec-13 20:30N 44°10' E 038°46'5 9.6
2017-Dec-13 20:00N 44°07' E 038°52'5 9.4
2017-Dec-13 19:30N 44°06' E 038°58'4 8.8
2017-Dec-13 19:00N 44°05' E 039°04'1 1.3
2017-Dec-13 18:28N 44°05' E 039°04'0 0.0
2017-Dec-13 17:59N 44°05' E 039°04'0 0.0
2017-Dec-13 17:28N 44°05' E 039°04'0 0.0
2017-Dec-13 16:58N 44°05' E 039°04'0 0.0
2017-Dec-13 16:28N 44°05' E 039°04'0 0.0
2017-Dec-13 15:58N 44°05' E 039°04'0 0.0
2017-Dec-13 15:28N 44°05' E 039°04'0 0.0
2017-Dec-13 14:58N 44°05' E 039°04'0 0.0
2017-Dec-13 14:28N 44°05' E 039°04'0 0.0
2017-Dec-13 13:58N 44°05' E 039°04'0 0.0
2017-Dec-13 13:28N 44°05' E 039°04'0 0.0
2017-Dec-13 12:58N 44°05' E 039°04'0 0.0
2017-Dec-13 12:28N 44°05' E 039°04'0 0.0
2017-Dec-13 12:00N 44°05' E 039°04'0 0.0
2017-Dec-13 11:30N 44°05' E 039°04'0 0.0
2017-Dec-13 11:00N 44°05' E 039°04'0 0.0
2017-Dec-13 10:30N 44°05' E 039°04'0 0.1
2017-Dec-13 10:00N 44°05' E 039°04'0 0.0
2017-Dec-13 09:30N 44°05' E 039°04'0 0.0
2017-Dec-13 09:00N 44°05' E 039°04'0 0.0
2017-Dec-13 08:29N 44°05' E 039°04'0 0.0
2017-Dec-13 07:59N 44°05' E 039°04'0 0.0
2017-Dec-13 07:29N 44°05' E 039°04'0 0.0
2017-Dec-13 07:00N 44°05' E 039°04'0 0.0
2017-Dec-13 06:30N 44°05' E 039°04'0 0.0
2017-Dec-13 06:00N 44°05' E 039°04'0 0.0
2017-Dec-13 05:30N 44°05' E 039°04'0 0.0
2017-Dec-13 05:00N 44°05' E 039°04'0 0.1
2017-Dec-13 04:30N 44°05' E 039°04'1 2.5
2017-Dec-13 04:00N 44°05' E 039°03'0 0.1
2017-Dec-13 03:28N 44°05' E 039°03'0 0.1
2017-Dec-13 02:58N 44°05' E 039°03'0 0.0
2017-Dec-13 02:28N 44°05' E 039°03'0 0.0
2017-Dec-13 01:58N 44°05' E 039°03'0 0.0
2017-Dec-13 01:30N 44°05' E 039°03'0 0.0
2017-Dec-13 01:00N 44°05' E 039°03'0 0.0
2017-Dec-13 00:30N 44°05' E 039°03'0 0.0
2017-Dec-12 23:59N 44°05' E 039°03'0 0.0
2017-Dec-12 23:29N 44°05' E 039°03'0 0.0
2017-Dec-12 22:58N 44°05' E 039°03'0 0.0
2017-Dec-12 22:25N 44°05' E 039°03'0 0.0
2017-Dec-12 22:00N 44°05' E 039°03'0 0.0
2017-Dec-12 21:30N 44°05' E 039°03'0 0.0
2017-Dec-12 21:00N 44°05' E 039°03'0 0.0
2017-Dec-12 20:29N 44°05' E 039°03'0 0.0
2017-Dec-12 19:59N 44°05' E 039°03'0 0.0
2017-Dec-12 19:28N 44°05' E 039°03'0 0.0
2017-Dec-12 18:58N 44°05' E 039°03'0 0.0
2017-Dec-12 18:29N 44°05' E 039°03'0 0.0
2017-Dec-12 17:59N 44°05' E 039°03'0 0.0
2017-Dec-12 17:29N 44°05' E 039°03'0 0.0
2017-Dec-12 17:00N 44°05' E 039°03'0 0.0
2017-Dec-12 16:30N 44°05' E 039°03'0 0.0
2017-Dec-12 16:00N 44°05' E 039°03'0 0.0
2017-Dec-12 15:30N 44°05' E 039°03'0 0.0
2017-Dec-12 14:58N 44°05' E 039°03'0 0.0
2017-Dec-12 14:28N 44°05' E 039°03'0 0.0
2017-Dec-12 13:58N 44°05' E 039°03'0 0.0
2017-Dec-12 13:29N 44°05' E 039°03'0 0.0
2017-Dec-12 12:59N 44°05' E 039°03'0 0.0
2017-Dec-12 12:30N 44°05' E 039°03'0 0.0
2017-Dec-12 12:00N 44°05' E 039°03'0 0.0
2017-Dec-12 11:30N 44°05' E 039°03'0 0.0
2017-Dec-12 10:59N 44°05' E 039°03'0 0.0
2017-Dec-12 10:29N 44°05' E 039°03'0 0.0
2017-Dec-12 10:00N 44°05' E 039°03'0 0.0
2017-Dec-12 09:27N 44°05' E 039°03'0 0.0
2017-Dec-12 08:59N 44°05' E 039°03'0 0.0
2017-Dec-12 08:29N 44°05' E 039°03'0 0.0
2017-Dec-12 08:00N 44°05' E 039°03'0 0.0
2017-Dec-12 07:28N 44°05' E 039°03'0 0.0
2017-Dec-12 06:58N 44°05' E 039°03'0 0.0
2017-Dec-12 06:30N 44°05' E 039°03'0 0.0
2017-Dec-12 06:00N 44°05' E 039°03'0 0.0
2017-Dec-12 05:30N 44°05' E 039°03'0 0.0
2017-Dec-12 04:58N 44°05' E 039°03'0 0.0
2017-Dec-12 04:28N 44°05' E 039°03'0 0.0
2017-Dec-12 03:59N 44°05' E 039°03'0 0.0
2017-Dec-12 03:29N 44°05' E 039°03'0 0.0
2017-Dec-12 02:59N 44°05' E 039°03'0 0.0
2017-Dec-12 02:28N 44°05' E 039°03'0 0.0
2017-Dec-12 01:58N 44°05' E 039°03'0 0.0
2017-Dec-12 01:30N 44°05' E 039°03'0 0.0
2017-Dec-12 01:00N 44°05' E 039°03'0 0.0
2017-Dec-12 00:29N 44°05' E 039°03'0 0.0
2017-Dec-11 23:59N 44°05' E 039°03'0 0.0
2017-Dec-11 23:30N 44°05' E 039°03'0 0.0
2017-Dec-11 23:00N 44°05' E 039°03'0 0.0
2017-Dec-11 22:30N 44°05' E 039°03'0 0.0
2017-Dec-11 22:00N 44°05' E 039°03'0 0.0
2017-Dec-11 21:30N 44°05' E 039°03'0 0.0
2017-Dec-11 21:00N 44°05' E 039°03'0 0.0
2017-Dec-11 20:30N 44°05' E 039°03'0 0.0
2017-Dec-11 19:59N 44°05' E 039°03'0 0.0
2017-Dec-11 19:29N 44°05' E 039°03'0 0.0
2017-Dec-11 18:59N 44°05' E 039°03'0 0.0
2017-Dec-11 18:29N 44°05' E 039°03'0 0.0
2017-Dec-11 17:59N 44°05' E 039°03'0 0.0
2017-Dec-11 17:29N 44°05' E 039°03'0 0.1
2017-Dec-11 16:59N 44°05' E 039°03'0 0.0
2017-Dec-11 16:29N 44°05' E 039°03'0 0.0
2017-Dec-11 15:59N 44°05' E 039°03'0 0.0
2017-Dec-11 15:29N 44°05' E 039°03'0 0.0
2017-Dec-11 14:59N 44°05' E 039°03'0 0.0
2017-Dec-11 14:29N 44°05' E 039°03'0 0.0
2017-Dec-11 13:59N 44°05' E 039°03'0 0.0
2017-Dec-11 13:29N 44°05' E 039°03'0 0.0
2017-Dec-11 12:58N 44°05' E 039°03'0 0.0
2017-Dec-11 12:28N 44°05' E 039°03'0 0.0
2017-Dec-11 11:58N 44°05' E 039°03'0 0.0
2017-Dec-11 11:28N 44°05' E 039°03'0 0.0
2017-Dec-11 10:58N 44°05' E 039°03'0 0.0
2017-Dec-11 10:28N 44°05' E 039°03'0 0.0
2017-Dec-11 09:58N 44°05' E 039°03'0 0.0
2017-Dec-11 09:28N 44°05' E 039°03'0 0.0
2017-Dec-11 08:58N 44°05' E 039°03'0 0.0
2017-Dec-11 08:28N 44°05' E 039°03'0 0.0
2017-Dec-11 07:58N 44°05' E 039°03'0 0.0
2017-Dec-11 07:28N 44°05' E 039°03'0 0.0
2017-Dec-11 06:58N 44°05' E 039°03'0 0.0
2017-Dec-11 06:28N 44°05' E 039°03'0 0.0
2017-Dec-11 05:58N 44°05' E 039°03'0 0.1
2017-Dec-11 05:28N 44°05' E 039°03'0 0.0
2017-Dec-11 04:58N 44°05' E 039°03'0 0.0
2017-Dec-11 04:28N 44°05' E 039°03'0 0.0
2017-Dec-11 03:58N 44°05' E 039°03'0 0.0
2017-Dec-11 03:28N 44°05' E 039°03'0 0.0
2017-Dec-11 02:58N 44°05' E 039°03'0 0.0
2017-Dec-11 02:28N 44°05' E 039°03'0 0.0
2017-Dec-11 01:58N 44°05' E 039°03'0 0.0
2017-Dec-11 01:28N 44°05' E 039°03'0 0.0
2017-Dec-11 00:58N 44°05' E 039°03'0 0.0
2017-Dec-11 00:28N 44°05' E 039°03'0 0.0
2017-Dec-10 23:58N 44°05' E 039°03'0 0.0
2017-Dec-10 23:28N 44°05' E 039°03'0 0.0
2017-Dec-10 22:58N 44°05' E 039°03'0 0.0
2017-Dec-10 22:28N 44°05' E 039°03'0 0.0
2017-Dec-10 21:58N 44°05' E 039°03'0 0.1
2017-Dec-10 21:28N 44°05' E 039°03'0 0.2
2017-Dec-10 20:58N 44°05' E 039°03'0 0.1
2017-Dec-10 20:28N 44°05' E 039°03'0 0.1
2017-Dec-10 19:58N 44°05' E 039°03'0 0.0
2017-Dec-10 19:28N 44°05' E 039°03'0 0.0
2017-Dec-10 18:58N 44°05' E 039°03'0 0.0
2017-Dec-10 18:28N 44°05' E 039°03'0 0.0
2017-Dec-10 17:58N 44°05' E 039°03'0 0.0
2017-Dec-10 17:28N 44°05' E 039°03'0 0.0
2017-Dec-10 16:58N 44°05' E 039°03'0 0.0
2017-Dec-10 16:28N 44°05' E 039°03'0 0.0
2017-Dec-10 15:58N 44°05' E 039°03'0 0.0
2017-Dec-10 15:28N 44°05' E 039°03'0 0.0
2017-Dec-10 14:58N 44°05' E 039°03'0 0.0
2017-Dec-10 14:28N 44°05' E 039°03'0 0.0
2017-Dec-10 13:58N 44°05' E 039°03'0 0.0
2017-Dec-10 13:28N 44°05' E 039°03'0 0.0
2017-Dec-10 12:58N 44°05' E 039°03'0 0.0
2017-Dec-10 12:28N 44°05' E 039°03'0 0.0
2017-Dec-10 11:58N 44°05' E 039°03'0 0.0
2017-Dec-10 11:28N 44°05' E 039°03'0 0.0
2017-Dec-10 10:58N 44°05' E 039°03'0 0.0
2017-Dec-10 10:28N 44°05' E 039°03'0 0.0
2017-Dec-10 09:58N 44°05' E 039°03'0 0.0
2017-Dec-10 09:28N 44°05' E 039°03'0 0.0
2017-Dec-10 08:58N 44°05' E 039°03'0 0.0
2017-Dec-10 08:28N 44°05' E 039°03'0 0.0
2017-Dec-10 07:58N 44°05' E 039°03'0 0.0
2017-Dec-10 07:28N 44°05' E 039°03'0 0.0
2017-Dec-10 06:58N 44°05' E 039°03'0 0.0
2017-Dec-10 06:30N 44°05' E 039°03'0 0.0
2017-Dec-10 06:00N 44°05' E 039°03'0 0.0
2017-Dec-10 05:30N 44°05' E 039°03'0 0.0
2017-Dec-10 05:00N 44°05' E 039°03'0 0.0
2017-Dec-10 04:30N 44°05' E 039°03'0 0.0
2017-Dec-10 04:00N 44°05' E 039°03'0 0.0
2017-Dec-10 03:30N 44°05' E 039°03'0 0.0
2017-Dec-10 03:00N 44°05' E 039°03'0 0.0
2017-Dec-10 02:30N 44°05' E 039°03'0 0.0
2017-Dec-10 02:00N 44°05' E 039°03'0 0.0
2017-Dec-10 01:30N 44°05' E 039°03'0 0.0
2017-Dec-10 01:00N 44°05' E 039°03'0 0.0
2017-Dec-10 00:30N 44°05' E 039°03'0 0.0
2017-Dec-10 00:00N 44°05' E 039°03'0 0.0
2017-Dec-09 23:30N 44°05' E 039°03'0 0.0
2017-Dec-09 23:00N 44°05' E 039°03'0 0.0
2017-Dec-09 22:30N 44°05' E 039°03'0 0.0
2017-Dec-09 22:00N 44°05' E 039°03'0 0.0
2017-Dec-09 21:30N 44°05' E 039°03'0 0.2
2017-Dec-09 21:00N 44°05' E 039°03'1 2.4
2017-Dec-09 20:30N 44°05' E 039°04'0 0.0
2017-Dec-09 20:00N 44°05' E 039°04'0 0.0
2017-Dec-09 19:30N 44°05' E 039°04'0 0.0
2017-Dec-09 19:00N 44°05' E 039°04'0 0.0
2017-Dec-09 18:30N 44°05' E 039°04'0 0.0
2017-Dec-09 18:00N 44°05' E 039°04'0 0.0
2017-Dec-09 17:30N 44°05' E 039°04'0 0.0
2017-Dec-09 17:00N 44°05' E 039°04'0 0.0
2017-Dec-09 16:30N 44°05' E 039°04'0 0.0
2017-Dec-09 16:00N 44°05' E 039°04'0 0.0
2017-Dec-09 15:30N 44°05' E 039°04'0 0.0
2017-Dec-09 15:00N 44°05' E 039°04'0 0.0
2017-Dec-09 14:30N 44°05' E 039°04'0 0.0
2017-Dec-09 14:00N 44°05' E 039°04'0 0.0
2017-Dec-09 13:30N 44°05' E 039°04'0 0.0
2017-Dec-09 13:00N 44°05' E 039°04'0 0.0
2017-Dec-09 12:30N 44°05' E 039°04'1 2.3
2017-Dec-09 12:00N 44°05' E 039°03'0 0.6
2017-Dec-09 11:28N 44°05' E 039°03'0 0.0
2017-Dec-09 10:58N 44°05' E 039°03'0 0.0
2017-Dec-09 10:28N 44°05' E 039°03'0 0.0
2017-Dec-09 10:00N 44°05' E 039°03'0 0.0
2017-Dec-09 09:30N 44°05' E 039°03'0 0.0
2017-Dec-09 09:00N 44°05' E 039°03'0 0.0
2017-Dec-09 08:30N 44°05' E 039°03'0 0.0
2017-Dec-09 08:00N 44°05' E 039°03'0 0.0
2017-Dec-09 07:30N 44°05' E 039°03'0 0.0
2017-Dec-09 07:00N 44°05' E 039°03'0 0.0
2017-Dec-09 06:30N 44°05' E 039°03'0 0.0
2017-Dec-09 06:00N 44°05' E 039°03'0 0.0
2017-Dec-09 05:30N 44°05' E 039°03'0 0.0
2017-Dec-09 05:00N 44°05' E 039°03'0 0.0
2017-Dec-09 04:30N 44°05' E 039°03'0 0.0
2017-Dec-09 04:00N 44°05' E 039°03'0 0.0
2017-Dec-09 03:30N 44°05' E 039°03'0 0.0
2017-Dec-09 03:00N 44°05' E 039°03'0 0.0
2017-Dec-09 02:30N 44°05' E 039°03'0 0.0
2017-Dec-09 02:00N 44°05' E 039°03'0 0.0
2017-Dec-09 01:30N 44°05' E 039°03'0 0.0
2017-Dec-09 01:00N 44°05' E 039°03'0 0.0
2017-Dec-09 00:30N 44°05' E 039°03'0 0.0
2017-Dec-09 00:00N 44°05' E 039°03'0 0.0
2017-Dec-08 23:30N 44°05' E 039°03'0 0.0
2017-Dec-08 23:00N 44°05' E 039°03'0 0.0
2017-Dec-08 22:30N 44°05' E 039°03'0 0.0
2017-Dec-08 22:00N 44°05' E 039°03'0 0.0
2017-Dec-08 21:30N 44°05' E 039°03'0 0.0
2017-Dec-08 21:00N 44°05' E 039°03'0 0.0
2017-Dec-08 20:30N 44°05' E 039°03'0 0.0
2017-Dec-08 20:00N 44°05' E 039°03'0 0.0
2017-Dec-08 19:30N 44°05' E 039°03'0 0.0
2017-Dec-08 19:00N 44°05' E 039°03'0 0.0
2017-Dec-08 18:30N 44°05' E 039°03'0 0.0
2017-Dec-08 18:00N 44°05' E 039°03'0 0.0
2017-Dec-08 17:30N 44°05' E 039°03'0 0.0
2017-Dec-08 17:00N 44°05' E 039°03'0 0.0
2017-Dec-08 16:30N 44°05' E 039°03'0 0.0
2017-Dec-08 16:00N 44°05' E 039°03'0 0.0
2017-Dec-08 15:30N 44°05' E 039°03'0 0.0
2017-Dec-08 15:00N 44°05' E 039°03'0 0.0
2017-Dec-08 14:30N 44°05' E 039°03'0 0.0
2017-Dec-08 14:00N 44°05' E 039°03'0 0.0
2017-Dec-08 13:30N 44°05' E 039°03'0 0.1
2017-Dec-08 13:00N 44°05' E 039°03'0 0.1
2017-Dec-08 12:30N 44°05' E 039°03'0 0.0
2017-Dec-08 12:00N 44°05' E 039°03'0 0.0
2017-Dec-08 11:30N 44°05' E 039°03'0 0.1
2017-Dec-08 11:00N 44°05' E 039°03'0 0.0
2017-Dec-08 10:30N 44°05' E 039°03'0 0.0
2017-Dec-08 10:00N 44°05' E 039°03'0 0.0
2017-Dec-08 09:30N 44°05' E 039°03'0 0.0
2017-Dec-08 09:00N 44°05' E 039°03'  
Track history (hours):
 
Tides and Currents Weather Stations Pressure Air Temp Water Temp Dewpoint Dewpoint Depression Visibility Wind Speed Wind Dir Waves Ship Positions

Rn Olymp

Last reported at 2017-Dec-18 08:30 UTC. Time now 2017-Dec-18 08:53 UTC.
Position N 44°36' E 037°55'.

Length 98 m; draft 6.1 m.

Type: Tanker. MMSI: 273330670.

Date/timePositionNaut miles runAvg speedWind from/ knotsBaromVisibWave heightAir tempDewpointWater temp
2017-Dec-18 08:30N 44°36' E 037°55'0 0.0
2017-Dec-18 08:00N 44°36' E 037°55'0 0.0
2017-Dec-18 07:30N 44°36' E 037°55'0 0.3
2017-Dec-18 07:01N 44°36' E 037°55'3 5.7
2017-Dec-18 06:31N 44°38' E 037°52'4 7.9
2017-Dec-18 06:01N 44°42' E 037°49'1 1.4
2017-Dec-18 05:31N 44°42' E 037°49'0 0.1
2017-Dec-18 05:00N 44°42' E 037°48'0 0.0
2017-Dec-18 04:30N 44°42' E 037°48'0 0.0
2017-Dec-18 04:00N 44°42' E 037°48'0 0.0
2017-Dec-18 03:31N 44°42' E 037°48'0 0.0
2017-Dec-18 03:01N 44°42' E 037°48'0 0.0
2017-Dec-18 02:30N 44°42' E 037°48'0 0.0
2017-Dec-18 02:01N 44°42' E 037°48'0 0.0
2017-Dec-18 01:30N 44°42' E 037°48'0 0.0
2017-Dec-18 01:00N 44°42' E 037°48'0 0.0
2017-Dec-18 00:31N 44°42' E 037°48'1 1.5
2017-Dec-18 00:00N 44°43' E 037°49'1 1.3
2017-Dec-17 23:30N 44°43' E 037°49'0 0.0
2017-Dec-17 23:00N 44°43' E 037°49'0 0.0
2017-Dec-17 22:30N 44°43' E 037°49'0 0.0
2017-Dec-17 22:00N 44°43' E 037°49'0 0.0
2017-Dec-17 21:30N 44°43' E 037°49'0 0.0
2017-Dec-17 21:00N 44°43' E 037°49'0 0.0
2017-Dec-17 20:30N 44°43' E 037°49'0 0.0
2017-Dec-17 20:01N 44°43' E 037°49'0 0.0
2017-Dec-17 19:30N 44°43' E 037°49'0 0.0
2017-Dec-17 19:00N 44°43' E 037°49'0 0.0
2017-Dec-17 18:30N 44°43' E 037°49'0 0.0
2017-Dec-17 18:00N 44°43' E 037°49'0 0.0
2017-Dec-17 17:30N 44°43' E 037°49'0 0.0
2017-Dec-17 17:00N 44°43' E 037°49'0 0.0
2017-Dec-17 16:30N 44°43' E 037°49'0 0.0
2017-Dec-17 16:00N 44°43' E 037°49'0 0.0
2017-Dec-17 15:30N 44°43' E 037°49'0 0.0
2017-Dec-17 15:00N 44°43' E 037°49'0 0.0
2017-Dec-17 14:30N 44°43' E 037°49'0 0.0
2017-Dec-17 14:00N 44°43' E 037°49'0 0.0
2017-Dec-17 13:30N 44°43' E 037°49'0 0.0
2017-Dec-17 13:00N 44°43' E 037°49'0 0.0
2017-Dec-17 12:30N 44°43' E 037°49'0 0.0
2017-Dec-17 12:00N 44°43' E 037°49'0 0.0
2017-Dec-17 11:30N 44°43' E 037°49'0 0.0
2017-Dec-17 11:00N 44°43' E 037°49'0 0.0
2017-Dec-17 10:30N 44°43' E 037°49'0 0.0
2017-Dec-17 10:00N 44°43' E 037°49'0 0.6
2017-Dec-17 09:30N 44°43' E 037°49'3 5.6
2017-Dec-17 09:00N 44°40' E 037°50'4 8.6
2017-Dec-17 08:30N 44°37' E 037°54'3 5.4
2017-Dec-17 08:00N 44°35' E 037°57'0 0.0
2017-Dec-17 07:30N 44°35' E 037°57'0 0.0
2017-Dec-17 07:00N 44°35' E 037°57'0 0.0
2017-Dec-17 06:30N 44°35' E 037°57'0 0.0
2017-Dec-17 06:00N 44°35' E 037°57'0 0.0
2017-Dec-17 05:30N 44°35' E 037°57'0 0.1
2017-Dec-17 05:00N 44°35' E 037°57'0 0.1
2017-Dec-17 04:30N 44°35' E 037°57'0 0.1
2017-Dec-17 04:00N 44°35' E 037°57'0 0.0
2017-Dec-17 03:30N 44°35' E 037°57'0 0.0
2017-Dec-17 02:58N 44°35' E 037°57'0 0.0
2017-Dec-17 02:28N 44°35' E 037°57'0 0.0
2017-Dec-17 01:58N 44°35' E 037°57'0 0.0
2017-Dec-17 01:28N 44°35' E 037°57'0 0.1
2017-Dec-17 00:58N 44°35' E 037°57'0 0.0
2017-Dec-17 00:28N 44°35' E 037°57'0 0.0
2017-Dec-16 23:58N 44°35' E 037°57'0 0.0
2017-Dec-16 23:28N 44°35' E 037°57'0 0.1
2017-Dec-16 22:55N 44°35' E 037°57'0 0.1
2017-Dec-16 22:29N 44°35' E 037°57'0 0.1
2017-Dec-16 21:57N 44°35' E 037°57'0 0.1
2017-Dec-16 21:30N 44°35' E 037°57'2 3.8
2017-Dec-16 21:00N 44°33' E 037°58'4 9.2
2017-Dec-16 20:30N 44°30' E 038°02'20 9.5
2017-Dec-16 18:23N 44°18' E 038°25'14 9.4
2017-Dec-16 16:56N 44°12' E 038°41'4 9.2
2017-Dec-16 16:30N 44°10' E 038°46'4 8.9
2017-Dec-16 16:00N 44°08' E 038°52'4 8.7
2017-Dec-16 15:30N 44°06' E 038°57'4 7.3
2017-Dec-16 15:00N 44°05' E 039°02'0 0.6
2017-Dec-16 14:30N 44°05' E 039°02'0 0.0
2017-Dec-16 14:00N 44°05' E 039°02'0 0.0
2017-Dec-16 13:30N 44°05' E 039°02'0 0.0
2017-Dec-16 13:00N 44°05' E 039°02'0 0.7
2017-Dec-16 12:30N 44°05' E 039°03'1 2.5
2017-Dec-16 11:59N 44°05' E 039°04'0 0.0
2017-Dec-16 11:29N 44°05' E 039°04'0 0.0
2017-Dec-16 10:59N 44°05' E 039°04'0 0.0
2017-Dec-16 10:29N 44°05' E 039°04'0 0.0
2017-Dec-16 09:59N 44°05' E 039°04'0 0.0
2017-Dec-16 09:29N 44°05' E 039°04'0 0.0
2017-Dec-16 08:59N 44°05' E 039°04'0 0.0
2017-Dec-16 08:29N 44°05' E 039°04'0 0.0
2017-Dec-16 07:59N 44°05' E 039°04'0 0.0
2017-Dec-16 07:29N 44°05' E 039°04'0 0.0
2017-Dec-16 06:59N 44°05' E 039°04'0 0.0
2017-Dec-16 06:29N 44°05' E 039°04'0 0.0
2017-Dec-16 05:59N 44°05' E 039°04'0 0.0
2017-Dec-16 05:28N 44°05' E 039°04'0 0.0
2017-Dec-16 04:58N 44°05' E 039°04'0 0.0
2017-Dec-16 04:28N 44°05' E 039°04'0 0.0
2017-Dec-16 03:58N 44°05' E 039°04'0 0.0
2017-Dec-16 03:27N 44°05' E 039°04'0 0.0
2017-Dec-16 03:00N 44°05' E 039°04'0 0.0
2017-Dec-16 02:30N 44°05' E 039°04'0 0.0
2017-Dec-16 01:59N 44°05' E 039°04'0 0.0
2017-Dec-16 01:26N 44°05' E 039°04'0 0.0
2017-Dec-16 01:01N 44°05' E 039°04'1 2.8
2017-Dec-16 00:30N 44°05' E 039°03'3 6.0
2017-Dec-16 00:00N 44°06' E 038°58'3 5.9
2017-Dec-15 23:30N 44°07' E 038°55'3 5.5
2017-Dec-15 23:00N 44°08' E 038°51'3 5.5
2017-Dec-15 22:30N 44°09' E 038°48'3 5.4
2017-Dec-15 22:00N 44°11' E 038°45'3 5.3
2017-Dec-15 21:30N 44°12' E 038°41'3 5.2
2017-Dec-15 20:57N 44°14' E 038°38'2 5.1
2017-Dec-15 20:30N 44°15' E 038°35'8 5.1
2017-Dec-15 18:58N 44°18' E 038°25'14 5.0
2017-Dec-15 16:08N 44°25' E 038°08'1 5.2
2017-Dec-15 15:56N 44°26' E 038°07'3 5.2
2017-Dec-15 15:23N 44°28' E 038°05'2 5.2
2017-Dec-15 15:00N 44°30' E 038°03'3 5.2
2017-Dec-15 14:30N 44°32' E 038°00'3 6.4
2017-Dec-15 14:00N 44°34' E 037°57'3 6.5
2017-Dec-15 13:30N 44°37' E 037°54'0 0.3
2017-Dec-15 13:00N 44°36' E 037°54'0 0.0
2017-Dec-15 12:30N 44°36' E 037°54'0 0.0
2017-Dec-15 12:00N 44°36' E 037°54'0 0.0
2017-Dec-15 11:30N 44°36' E 037°54'0 0.0
2017-Dec-15 11:00N 44°36' E 037°54'0 0.0
2017-Dec-15 10:30N 44°36' E 037°54'0 0.0
2017-Dec-15 10:00N 44°36' E 037°54'0 0.0
2017-Dec-15 09:30N 44°36' E 037°54'0 0.0
2017-Dec-15 09:00N 44°36' E 037°54'0 0.0
2017-Dec-15 08:30N 44°36' E 037°54'0 0.0
2017-Dec-15 08:00N 44°36' E 037°54'0 0.0
2017-Dec-15 07:30N 44°36' E 037°54'0 0.0
2017-Dec-15 07:00N 44°36' E 037°54'0 0.0
2017-Dec-15 06:30N 44°36' E 037°54'0 0.0
2017-Dec-15 05:59N 44°36' E 037°54'0 0.0
2017-Dec-15 05:29N 44°36' E 037°54'0 0.0
2017-Dec-15 04:59N 44°36' E 037°54'0 0.0
2017-Dec-15 03:53N 44°36' E 037°54'0 0.0
2017-Dec-15 02:29N 44°36' E 037°54'0 0.0
2017-Dec-15 00:59N 44°36' E 037°54'0 0.0
2017-Dec-15 00:29N 44°36' E 037°54'0 0.0
2017-Dec-14 18:31N 44°36' E 037°54'1 1.2
2017-Dec-14 18:01N 44°37' E 037°54'4 8.9
2017-Dec-14 17:30N 44°40' E 037°50'4 7.6
2017-Dec-14 17:01N 44°43' E 037°47'0 0.6
2017-Dec-14 16:28N 44°44' E 037°47'0 0.0
2017-Dec-14 15:58N 44°44' E 037°47'0 0.0
2017-Dec-14 14:58N 44°44' E 037°47'0 0.0
2017-Dec-14 14:28N 44°44' E 037°47'0 0.0
2017-Dec-14 13:58N 44°44' E 037°47'0 0.0
2017-Dec-14 13:28N 44°44' E 037°47'0 0.0
2017-Dec-14 12:58N 44°44' E 037°47'0 0.0
2017-Dec-14 12:28N 44°44' E 037°47'0 0.0
2017-Dec-14 12:00N 44°44' E 037°47'0 0.0
2017-Dec-14 11:30N 44°44' E 037°47'0 0.0
2017-Dec-14 11:00N 44°44' E 037°47'0 0.0
2017-Dec-14 10:30N 44°44' E 037°47'1 2.3
2017-Dec-14 10:00N 44°43' E 037°48'2 3.5
2017-Dec-14 09:30N 44°43' E 037°51'0 0.0
2017-Dec-14 08:58N 44°43' E 037°51'0 0.0
2017-Dec-14 08:28N 44°43' E 037°51'0 0.0
2017-Dec-14 07:59N 44°43' E 037°51'0 0.0
2017-Dec-14 07:29N 44°43' E 037°51'0 0.0
2017-Dec-14 06:59N 44°43' E 037°51'0 0.0
2017-Dec-14 06:29N 44°43' E 037°51'0 0.0
2017-Dec-14 05:59N 44°43' E 037°51'0 0.0
2017-Dec-14 05:29N 44°43' E 037°51'0 0.0
2017-Dec-14 04:59N 44°43' E 037°51'0 0.0
2017-Dec-14 04:29N 44°43' E 037°51'0 0.0
2017-Dec-14 03:59N 44°43' E 037°51'0 0.0
2017-Dec-14 03:29N 44°43' E 037°51'0 0.0
2017-Dec-14 02:59N 44°43' E 037°51'0 0.0
2017-Dec-14 02:29N 44°43' E 037°51'1 1.7
2017-Dec-14 02:00N 44°42' E 037°50'4 8.8
2017-Dec-14 01:30N 44°38' E 037°51'4 8.8
2017-Dec-14 01:00N 44°34' E 037°53'5 9.4
2017-Dec-14 00:30N 44°30' E 037°58'5 9.6
2017-Dec-14 00:00N 44°27' E 038°03'5 9.8
2017-Dec-13 23:30N 44°24' E 038°09'510.0
2017-Dec-13 22:57N 44°22' E 038°15'510.0
2017-Dec-13 22:30N 44°20' E 038°21'510.1
2017-Dec-13 22:00N 44°17' E 038°27'710.4
2017-Dec-13 21:17N 44°13' E 038°36'310.2
2017-Dec-13 21:00N 44°12' E 038°40'5 9.9
2017-Dec-13 20:30N 44°10' E 038°46'5 9.6
2017-Dec-13 20:00N 44°07' E 038°52'5 9.4
2017-Dec-13 19:30N 44°06' E 038°58'4 8.8
2017-Dec-13 19:00N 44°05' E 039°04'1 1.3
2017-Dec-13 18:28N 44°05' E 039°04'0 0.0
2017-Dec-13 17:59N 44°05' E 039°04'0 0.0
2017-Dec-13 17:28N 44°05' E 039°04'0 0.0
2017-Dec-13 16:58N 44°05' E 039°04'0 0.0
2017-Dec-13 16:28N 44°05' E 039°04'0 0.0
2017-Dec-13 15:58N 44°05' E 039°04'0 0.0
2017-Dec-13 15:28N 44°05' E 039°04'0 0.0
2017-Dec-13 14:58N 44°05' E 039°04'0 0.0
2017-Dec-13 14:28N 44°05' E 039°04'0 0.0
2017-Dec-13 13:58N 44°05' E 039°04'0 0.0
2017-Dec-13 13:28N 44°05' E 039°04'0 0.0
2017-Dec-13 12:58N 44°05' E 039°04'0 0.0
2017-Dec-13 12:28N 44°05' E 039°04'0 0.0
2017-Dec-13 12:00N 44°05' E 039°04'0 0.0
2017-Dec-13 11:30N 44°05' E 039°04'0 0.0
2017-Dec-13 11:00N 44°05' E 039°04'0 0.0
2017-Dec-13 10:30N 44°05' E 039°04'0 0.1
2017-Dec-13 10:00N 44°05' E 039°04'0 0.0
2017-Dec-13 09:30N 44°05' E 039°04'0 0.0
2017-Dec-13 09:00N 44°05' E 039°04'0 0.0
2017-Dec-13 08:29N 44°05' E 039°04'0 0.0
2017-Dec-13 07:59N 44°05' E 039°04'0 0.0
2017-Dec-13 07:29N 44°05' E 039°04'0 0.0
2017-Dec-13 07:00N 44°05' E 039°04'0 0.0
2017-Dec-13 06:30N 44°05' E 039°04'0 0.0
2017-Dec-13 06:00N 44°05' E 039°04'0 0.0
2017-Dec-13 05:30N 44°05' E 039°04'0 0.0
2017-Dec-13 05:00N 44°05' E 039°04'0 0.1
2017-Dec-13 04:30N 44°05' E 039°04'1 2.5
2017-Dec-13 04:00N 44°05' E 039°03'0 0.1
2017-Dec-13 03:28N 44°05' E 039°03'0 0.1
2017-Dec-13 02:58N 44°05' E 039°03'0 0.0
2017-Dec-13 02:28N 44°05' E 039°03'0 0.0
2017-Dec-13 01:58N 44°05' E 039°03'0 0.0
2017-Dec-13 01:30N 44°05' E 039°03'0 0.0
2017-Dec-13 01:00N 44°05' E 039°03'0 0.0
2017-Dec-13 00:30N 44°05' E 039°03'0 0.0
2017-Dec-12 23:59N 44°05' E 039°03'0 0.0
2017-Dec-12 23:29N 44°05' E 039°03'0 0.0
2017-Dec-12 22:58N 44°05' E 039°03'0 0.0
2017-Dec-12 22:25N 44°05' E 039°03'0 0.0
2017-Dec-12 22:00N 44°05' E 039°03'0 0.0
2017-Dec-12 21:30N 44°05' E 039°03'0 0.0
2017-Dec-12 21:00N 44°05' E 039°03'0 0.0
2017-Dec-12 20:29N 44°05' E 039°03'0 0.0
2017-Dec-12 19:59N 44°05' E 039°03'0 0.0
2017-Dec-12 19:28N 44°05' E 039°03'0 0.0
2017-Dec-12 18:58N 44°05' E 039°03'0 0.0
2017-Dec-12 18:29N 44°05' E 039°03'0 0.0
2017-Dec-12 17:59N 44°05' E 039°03'0 0.0
2017-Dec-12 17:29N 44°05' E 039°03'0 0.0
2017-Dec-12 17:00N 44°05' E 039°03'0 0.0
2017-Dec-12 16:30N 44°05' E 039°03'0 0.0
2017-Dec-12 16:00N 44°05' E 039°03'0 0.0
2017-Dec-12 15:30N 44°05' E 039°03'0 0.0
2017-Dec-12 14:58N 44°05' E 039°03'0 0.0
2017-Dec-12 14:28N 44°05' E 039°03'0 0.0
2017-Dec-12 13:58N 44°05' E 039°03'0 0.0
2017-Dec-12 13:29N 44°05' E 039°03'0 0.0
2017-Dec-12 12:59N 44°05' E 039°03'0 0.0
2017-Dec-12 12:30N 44°05' E 039°03'0 0.0
2017-Dec-12 12:00N 44°05' E 039°03'0 0.0
2017-Dec-12 11:30N 44°05' E 039°03'0 0.0
2017-Dec-12 10:59N 44°05' E 039°03'0 0.0
2017-Dec-12 10:29N 44°05' E 039°03'0 0.0
2017-Dec-12 10:00N 44°05' E 039°03'0 0.0
2017-Dec-12 09:27N 44°05' E 039°03'0 0.0
2017-Dec-12 08:59N 44°05' E 039°03'0 0.0
2017-Dec-12 08:29N 44°05' E 039°03'0 0.0
2017-Dec-12 08:00N 44°05' E 039°03'0 0.0
2017-Dec-12 07:28N 44°05' E 039°03'0 0.0
2017-Dec-12 06:58N 44°05' E 039°03'0 0.0
2017-Dec-12 06:30N 44°05' E 039°03'0 0.0
2017-Dec-12 06:00N 44°05' E 039°03'0 0.0
2017-Dec-12 05:30N 44°05' E 039°03'0 0.0
2017-Dec-12 04:58N 44°05' E 039°03'0 0.0
2017-Dec-12 04:28N 44°05' E 039°03'0 0.0
2017-Dec-12 03:59N 44°05' E 039°03'0 0.0
2017-Dec-12 03:29N 44°05' E 039°03'0 0.0
2017-Dec-12 02:59N 44°05' E 039°03'0 0.0
2017-Dec-12 02:28N 44°05' E 039°03'0 0.0
2017-Dec-12 01:58N 44°05' E 039°03'0 0.0
2017-Dec-12 01:30N 44°05' E 039°03'0 0.0
2017-Dec-12 01:00N 44°05' E 039°03'0 0.0
2017-Dec-12 00:29N 44°05' E 039°03'0 0.0
2017-Dec-11 23:59N 44°05' E 039°03'0 0.0
2017-Dec-11 23:30N 44°05' E 039°03'0 0.0
2017-Dec-11 23:00N 44°05' E 039°03'0 0.0
2017-Dec-11 22:30N 44°05' E 039°03'0 0.0
2017-Dec-11 22:00N 44°05' E 039°03'0 0.0
2017-Dec-11 21:30N 44°05' E 039°03'0 0.0
2017-Dec-11 21:00N 44°05' E 039°03'0 0.0
2017-Dec-11 20:30N 44°05' E 039°03'0 0.0
2017-Dec-11 19:59N 44°05' E 039°03'0 0.0
2017-Dec-11 19:29N 44°05' E 039°03'0 0.0
2017-Dec-11 18:59N 44°05' E 039°03'0 0.0
2017-Dec-11 18:29N 44°05' E 039°03'0 0.0
2017-Dec-11 17:59N 44°05' E 039°03'0 0.0
2017-Dec-11 17:29N 44°05' E 039°03'0 0.1
2017-Dec-11 16:59N 44°05' E 039°03'0 0.0
2017-Dec-11 16:29N 44°05' E 039°03'0 0.0
2017-Dec-11 15:59N 44°05' E 039°03'0 0.0
2017-Dec-11 15:29N 44°05' E 039°03'0 0.0
2017-Dec-11 14:59N 44°05' E 039°03'0 0.0
2017-Dec-11 14:29N 44°05' E 039°03'0 0.0
2017-Dec-11 13:59N 44°05' E 039°03'0 0.0
2017-Dec-11 13:29N 44°05' E 039°03'0 0.0
2017-Dec-11 12:58N 44°05' E 039°03'0 0.0
2017-Dec-11 12:28N 44°05' E 039°03'0 0.0
2017-Dec-11 11:58N 44°05' E 039°03'0 0.0
2017-Dec-11 11:28N 44°05' E 039°03'0 0.0
2017-Dec-11 10:58N 44°05' E 039°03'0 0.0
2017-Dec-11 10:28N 44°05' E 039°03'0 0.0
2017-Dec-11 09:58N 44°05' E 039°03'0 0.0
2017-Dec-11 09:28N 44°05' E 039°03'0 0.0
2017-Dec-11 08:58N 44°05' E 039°03'0 0.0
2017-Dec-11 08:28N 44°05' E 039°03'0 0.0
2017-Dec-11 07:58N 44°05' E 039°03'0 0.0
2017-Dec-11 07:28N 44°05' E 039°03'0 0.0
2017-Dec-11 06:58N 44°05' E 039°03'0 0.0
2017-Dec-11 06:28N 44°05' E 039°03'0 0.0
2017-Dec-11 05:58N 44°05' E 039°03'0 0.1
2017-Dec-11 05:28N 44°05' E 039°03'0 0.0
2017-Dec-11 04:58N 44°05' E 039°03'0 0.0
2017-Dec-11 04:28N 44°05' E 039°03'0 0.0
2017-Dec-11 03:58N 44°05' E 039°03'0 0.0
2017-Dec-11 03:28N 44°05' E 039°03'0 0.0
2017-Dec-11 02:58N 44°05' E 039°03'0 0.0
2017-Dec-11 02:28N 44°05' E 039°03'0 0.0
2017-Dec-11 01:58N 44°05' E 039°03'0 0.0
2017-Dec-11 01:28N 44°05' E 039°03'0 0.0
2017-Dec-11 00:58N 44°05' E 039°03'0 0.0
2017-Dec-11 00:28N 44°05' E 039°03'0 0.0
2017-Dec-10 23:58N 44°05' E 039°03'0 0.0
2017-Dec-10 23:28N 44°05' E 039°03'0 0.0
2017-Dec-10 22:58N 44°05' E 039°03'0 0.0
2017-Dec-10 22:28N 44°05' E 039°03'0 0.0
2017-Dec-10 21:58N 44°05' E 039°03'0 0.1
2017-Dec-10 21:28N 44°05' E 039°03'0 0.2
2017-Dec-10 20:58N 44°05' E 039°03'0 0.1
2017-Dec-10 20:28N 44°05' E 039°03'0 0.1
2017-Dec-10 19:58N 44°05' E 039°03'0 0.0
2017-Dec-10 19:28N 44°05' E 039°03'0 0.0
2017-Dec-10 18:58N 44°05' E 039°03'0 0.0
2017-Dec-10 18:28N 44°05' E 039°03'0 0.0
2017-Dec-10 17:58N 44°05' E 039°03'0 0.0
2017-Dec-10 17:28N 44°05' E 039°03'0 0.0
2017-Dec-10 16:58N 44°05' E 039°03'0 0.0
2017-Dec-10 16:28N 44°05' E 039°03'0 0.0
2017-Dec-10 15:58N 44°05' E 039°03'0 0.0
2017-Dec-10 15:28N 44°05' E 039°03'0 0.0
2017-Dec-10 14:58N 44°05' E 039°03'0 0.0
2017-Dec-10 14:28N 44°05' E 039°03'0 0.0
2017-Dec-10 13:58N 44°05' E 039°03'0 0.0
2017-Dec-10 13:28N 44°05' E 039°03'0 0.0
2017-Dec-10 12:58N 44°05' E 039°03'0 0.0
2017-Dec-10 12:28N 44°05' E 039°03'0 0.0
2017-Dec-10 11:58N 44°05' E 039°03'0 0.0
2017-Dec-10 11:28N 44°05' E 039°03'0 0.0
2017-Dec-10 10:58N 44°05' E 039°03'0 0.0
2017-Dec-10 10:28N 44°05' E 039°03'0 0.0
2017-Dec-10 09:58N 44°05' E 039°03'0 0.0
2017-Dec-10 09:28N 44°05' E 039°03'0 0.0
2017-Dec-10 08:58N 44°05' E 039°03'0 0.0
2017-Dec-10 08:28N 44°05' E 039°03'0 0.0
2017-Dec-10 07:58N 44°05' E 039°03'0 0.0
2017-Dec-10 07:28N 44°05' E 039°03'0 0.0
2017-Dec-10 06:58N 44°05' E 039°03'0 0.0
2017-Dec-10 06:30N 44°05' E 039°03'0 0.0
2017-Dec-10 06:00N 44°05' E 039°03'0 0.0
2017-Dec-10 05:30N 44°05' E 039°03'0 0.0
2017-Dec-10 05:00N 44°05' E 039°03'0 0.0
2017-Dec-10 04:30N 44°05' E 039°03'0 0.0
2017-Dec-10 04:00N 44°05' E 039°03'0 0.0
2017-Dec-10 03:30N 44°05' E 039°03'0 0.0
2017-Dec-10 03:00N 44°05' E 039°03'0 0.0
2017-Dec-10 02:30N 44°05' E 039°03'0 0.0
2017-Dec-10 02:00N 44°05' E 039°03'0 0.0
2017-Dec-10 01:30N 44°05' E 039°03'0 0.0
2017-Dec-10 01:00N 44°05' E 039°03'0 0.0
2017-Dec-10 00:30N 44°05' E 039°03'0 0.0
2017-Dec-10 00:00N 44°05' E 039°03'0 0.0
2017-Dec-09 23:30N 44°05' E 039°03'0 0.0
2017-Dec-09 23:00N 44°05' E 039°03'0 0.0
2017-Dec-09 22:30N 44°05' E 039°03'0 0.0
2017-Dec-09 22:00N 44°05' E 039°03'0 0.0
2017-Dec-09 21:30N 44°05' E 039°03'0 0.2
2017-Dec-09 21:00N 44°05' E 039°03'1 2.4
2017-Dec-09 20:30N 44°05' E 039°04'0 0.0
2017-Dec-09 20:00N 44°05' E 039°04'0 0.0
2017-Dec-09 19:30N 44°05' E 039°04'0 0.0
2017-Dec-09 19:00N 44°05' E 039°04'0 0.0
2017-Dec-09 18:30N 44°05' E 039°04'0 0.0
2017-Dec-09 18:00N 44°05' E 039°04'0 0.0
2017-Dec-09 17:30N 44°05' E 039°04'0 0.0
2017-Dec-09 17:00N 44°05' E 039°04'0 0.0
2017-Dec-09 16:30N 44°05' E 039°04'0 0.0
2017-Dec-09 16:00N 44°05' E 039°04'0 0.0
2017-Dec-09 15:30N 44°05' E 039°04'0 0.0
2017-Dec-09 15:00N 44°05' E 039°04'0 0.0
2017-Dec-09 14:30N 44°05' E 039°04'0 0.0
2017-Dec-09 14:00N 44°05' E 039°04'0 0.0
2017-Dec-09 13:30N 44°05' E 039°04'0 0.0
2017-Dec-09 13:00N 44°05' E 039°04'0 0.0
2017-Dec-09 12:30N 44°05' E 039°04'1 2.3
2017-Dec-09 12:00N 44°05' E 039°03'0 0.6
2017-Dec-09 11:28N 44°05' E 039°03'0 0.0
2017-Dec-09 10:58N 44°05' E 039°03'0 0.0
2017-Dec-09 10:28N 44°05' E 039°03'0 0.0
2017-Dec-09 10:00N 44°05' E 039°03'0 0.0
2017-Dec-09 09:30N 44°05' E 039°03'0 0.0
2017-Dec-09 09:00N 44°05' E 039°03'0 0.0
2017-Dec-09 08:30N 44°05' E 039°03'0 0.0
2017-Dec-09 08:00N 44°05' E 039°03'0 0.0
2017-Dec-09 07:30N 44°05' E 039°03'0 0.0
2017-Dec-09 07:00N 44°05' E 039°03'0 0.0
2017-Dec-09 06:30N 44°05' E 039°03'0 0.0
2017-Dec-09 06:00N 44°05' E 039°03'0 0.0
2017-Dec-09 05:30N 44°05' E 039°03'0 0.0
2017-Dec-09 05:00N 44°05' E 039°03'0 0.0
2017-Dec-09 04:30N 44°05' E 039°03'0 0.0
2017-Dec-09 04:00N 44°05' E 039°03'0 0.0
2017-Dec-09 03:30N 44°05' E 039°03'0 0.0
2017-Dec-09 03:00N 44°05' E 039°03'0 0.0
2017-Dec-09 02:30N 44°05' E 039°03'0 0.0
2017-Dec-09 02:00N 44°05' E 039°03'0 0.0
2017-Dec-09 01:30N 44°05' E 039°03'0 0.0
2017-Dec-09 01:00N 44°05' E 039°03'0 0.0
2017-Dec-09 00:30N 44°05' E 039°03'0 0.0
2017-Dec-09 00:00N 44°05' E 039°03'0 0.0
2017-Dec-08 23:30N 44°05' E 039°03'0 0.0
2017-Dec-08 23:00N 44°05' E 039°03'0 0.0
2017-Dec-08 22:30N 44°05' E 039°03'0 0.0
2017-Dec-08 22:00N 44°05' E 039°03'0 0.0
2017-Dec-08 21:30N 44°05' E 039°03'0 0.0
2017-Dec-08 21:00N 44°05' E 039°03'0 0.0
2017-Dec-08 20:30N 44°05' E 039°03'0 0.0
2017-Dec-08 20:00N 44°05' E 039°03'0 0.0
2017-Dec-08 19:30N 44°05' E 039°03'0 0.0
2017-Dec-08 19:00N 44°05' E 039°03'0 0.0
2017-Dec-08 18:30N 44°05' E 039°03'0 0.0
2017-Dec-08 18:00N 44°05' E 039°03'0 0.0
2017-Dec-08 17:30N 44°05' E 039°03'0 0.0
2017-Dec-08 17:00N 44°05' E 039°03'0 0.0
2017-Dec-08 16:30N 44°05' E 039°03'0 0.0
2017-Dec-08 16:00N 44°05' E 039°03'0 0.0
2017-Dec-08 15:30N 44°05' E 039°03'0 0.0
2017-Dec-08 15:00N 44°05' E 039°03'0 0.0
2017-Dec-08 14:30N 44°05' E 039°03'0 0.0
2017-Dec-08 14:00N 44°05' E 039°03'0 0.0
2017-Dec-08 13:30N 44°05' E 039°03'0 0.1
2017-Dec-08 13:00N 44°05' E 039°03'0 0.1
2017-Dec-08 12:30N 44°05' E 039°03'0 0.0
2017-Dec-08 12:00N 44°05' E 039°03'0 0.0
2017-Dec-08 11:30N 44°05' E 039°03'0 0.1
2017-Dec-08 11:00N 44°05' E 039°03'0 0.0
2017-Dec-08 10:30N 44°05' E 039°03'0 0.0
2017-Dec-08 10:00N 44°05' E 039°03'0 0.0
2017-Dec-08 09:30N 44°05' E 039°03'0 0.0
2017-Dec-08 09:00N 44°05' E 039°03'  

Dump ship's entire track history